sensor_id;sensor_type;location;lat;lon;timestamp;pressure;altitude;pressure_sealevel;temperature;humidity
32298;BME280;18782;48.984;8.548;2023-11-19T00:00:08;99827.63;;;8.69;100.00
32298;BME280;18782;48.984;8.548;2023-11-19T00:02:41;99825.09;;;8.70;100.00
32298;BME280;18782;48.984;8.548;2023-11-19T00:05:10;99821.31;;;8.86;100.00
32298;BME280;18782;48.984;8.548;2023-11-19T00:07:39;99817.19;;;8.93;100.00
32298;BME280;18782;48.984;8.548;2023-11-19T00:10:08;99820.63;;;9.22;100.00
32298;BME280;18782;48.984;8.548;2023-11-19T00:12:37;99814.47;;;9.48;100.00
32298;BME280;18782;48.984;8.548;2023-11-19T00:15:06;99800.06;;;9.53;100.00
32298;BME280;18782;48.984;8.548;2023-11-19T00:17:37;99820.03;;;9.63;100.00
32298;BME280;18782;48.984;8.548;2023-11-19T00:20:09;99819.78;;;9.87;100.00
32298;BME280;18782;48.984;8.548;2023-11-19T00:22:36;99817.44;;;9.97;100.00
32298;BME280;18782;48.984;8.548;2023-11-19T00:25:15;99818.41;;;10.02;100.00
32298;BME280;18782;48.984;8.548;2023-11-19T00:27:43;99805.97;;;10.18;100.00
32298;BME280;18782;48.984;8.548;2023-11-19T00:30:11;99796.09;;;10.34;100.00
32298;BME280;18782;48.984;8.548;2023-11-19T00:32:40;99785.94;;;10.40;100.00
32298;BME280;18782;48.984;8.548;2023-11-19T00:35:09;99786.84;;;10.43;100.00
32298;BME280;18782;48.984;8.548;2023-11-19T00:37:37;99789.53;;;10.48;100.00
32298;BME280;18782;48.984;8.548;2023-11-19T00:40:07;99796.63;;;10.58;100.00
32298;BME280;18782;48.984;8.548;2023-11-19T00:42:37;99776.34;;;10.74;100.00
32298;BME280;18782;48.984;8.548;2023-11-19T00:45:05;99771.28;;;10.77;100.00
32298;BME280;18782;48.984;8.548;2023-11-19T00:47:35;99777.31;;;10.79;100.00
32298;BME280;18782;48.984;8.548;2023-11-19T00:50:03;99770.44;;;10.79;100.00
32298;BME280;18782;48.984;8.548;2023-11-19T00:52:32;99781.78;;;10.86;100.00
32298;BME280;18782;48.984;8.548;2023-11-19T00:54:59;99765.56;;;10.91;100.00
32298;BME280;18782;48.984;8.548;2023-11-19T00:57:27;99770.66;;;10.90;100.00
32298;BME280;18782;48.984;8.548;2023-11-19T00:59:55;99765.53;;;10.90;100.00
32298;BME280;18782;48.984;8.548;2023-11-19T01:02:22;99767.25;;;10.91;100.00
32298;BME280;18782;48.984;8.548;2023-11-19T01:04:50;99763.13;;;10.99;100.00
32298;BME280;18782;48.984;8.548;2023-11-19T01:07:19;99773.44;;;10.99;100.00
32298;BME280;18782;48.984;8.548;2023-11-19T01:09:49;99767.53;;;11.05;100.00
32298;BME280;18782;48.984;8.548;2023-11-19T01:12:18;99762.56;;;11.12;100.00
32298;BME280;18782;48.984;8.548;2023-11-19T01:14:45;99763.53;;;11.19;100.00
32298;BME280;18782;48.984;8.548;2023-11-19T01:17:13;99769.63;;;11.24;100.00
32298;BME280;18782;48.984;8.548;2023-11-19T01:19:40;99765.34;;;11.24;100.00
32298;BME280;18782;48.984;8.548;2023-11-19T01:22:08;99754.97;;;11.21;100.00
32298;BME280;18782;48.984;8.548;2023-11-19T01:24:36;99770.47;;;11.23;100.00
32298;BME280;18782;48.984;8.548;2023-11-19T01:27:05;99778.97;;;11.19;100.00
32298;BME280;18782;48.984;8.548;2023-11-19T01:29:32;99775.53;;;11.18;100.00
32298;BME280;18782;48.984;8.548;2023-11-19T01:32:00;99767.75;;;11.15;100.00
32298;BME280;18782;48.984;8.548;2023-11-19T01:34:28;99775.53;;;11.18;100.00
32298;BME280;18782;48.984;8.548;2023-11-19T01:36:55;99769.47;;;11.16;100.00
32298;BME280;18782;48.984;8.548;2023-11-19T01:39:23;99762.56;;;11.14;100.00
32298;BME280;18782;48.984;8.548;2023-11-19T01:41:51;99754.81;;;11.12;100.00
32298;BME280;18782;48.984;8.548;2023-11-19T01:44:20;99769.38;;;11.12;100.00
32298;BME280;18782;48.984;8.548;2023-11-19T01:46:48;99755.78;;;11.17;100.00
32298;BME280;18782;48.984;8.548;2023-11-19T01:49:17;99760.84;;;11.14;100.00
32298;BME280;18782;48.984;8.548;2023-11-19T01:51:47;99767.75;;;11.15;100.00
32298;BME280;18782;48.984;8.548;2023-11-19T01:54:15;99754.88;;;11.15;100.00
32298;BME280;18782;48.984;8.548;2023-11-19T01:56:43;99753.13;;;11.14;100.00
32298;BME280;18782;48.984;8.548;2023-11-19T01:59:12;99751.41;;;11.13;100.00
32298;BME280;18782;48.984;8.548;2023-11-19T02:01:42;99759.22;;;11.18;100.00
32298;BME280;18782;48.984;8.548;2023-11-19T02:04:11;99762.59;;;11.17;100.00
32298;BME280;18782;48.984;8.548;2023-11-19T02:06:41;99751.50;;;11.19;100.00
32298;BME280;18782;48.984;8.548;2023-11-19T02:09:10;99750.63;;;11.17;100.00
32298;BME280;18782;48.984;8.548;2023-11-19T02:11:39;99748.78;;;11.12;100.00
32298;BME280;18782;48.984;8.548;2023-11-19T02:14:07;99757.41;;;11.12;100.00
32298;BME280;18782;48.984;8.548;2023-11-19T02:16:35;99748.75;;;11.09;100.00
32298;BME280;18782;48.984;8.548;2023-11-19T02:19:04;99744.44;;;11.09;100.00
32298;BME280;18782;48.984;8.548;2023-11-19T02:21:32;99749.59;;;11.09;100.00
32298;BME280;18782;48.984;8.548;2023-11-19T02:24:01;99740.22;;;11.13;100.00
32298;BME280;18782;48.984;8.548;2023-11-19T02:26:39;99739.28;;;11.08;100.00
32298;BME280;18782;48.984;8.548;2023-11-19T02:29:08;99748.72;;;11.07;100.00
32298;BME280;18782;48.984;8.548;2023-11-19T02:31:36;99742.81;;;11.14;100.00
32298;BME280;18782;48.984;8.548;2023-11-19T02:34:04;99761.81;;;11.19;100.00
32298;BME280;18782;48.984;8.548;2023-11-19T02:36:32;99760.13;;;11.21;100.00
32298;BME280;18782;48.984;8.548;2023-11-19T02:39:00;99745.69;;;11.30;100.00
32298;BME280;18782;48.984;8.548;2023-11-19T02:41:28;99743.16;;;11.33;100.00
32298;BME280;18782;48.984;8.548;2023-11-19T02:43:56;99746.56;;;11.32;100.00
32298;BME280;18782;48.984;8.548;2023-11-19T02:46:26;99744.94;;;11.37;100.00
32298;BME280;18782;48.984;8.548;2023-11-19T02:48:53;99744.81;;;11.29;100.00
32298;BME280;18782;48.984;8.548;2023-11-19T02:51:23;99740.53;;;11.28;100.00
32298;BME280;18782;48.984;8.548;2023-11-19T02:53:50;99748.28;;;11.30;100.00
32298;BME280;18782;48.984;8.548;2023-11-19T02:56:19;99754.38;;;11.35;100.00
32298;BME280;18782;48.984;8.548;2023-11-19T02:58:52;99760.41;;;11.37;100.00
32298;BME280;18782;48.984;8.548;2023-11-19T03:01:24;99738.16;;;11.40;100.00
32298;BME280;18782;48.984;8.548;2023-11-19T03:04:00;99724.41;;;11.40;100.00
32298;BME280;18782;48.984;8.548;2023-11-19T03:06:30;99728.78;;;11.45;100.00
32298;BME280;18782;48.984;8.548;2023-11-19T03:08:58;99728.72;;;11.42;100.00
32298;BME280;18782;48.984;8.548;2023-11-19T03:11:32;99731.28;;;11.39;100.00
32298;BME280;18782;48.984;8.548;2023-11-19T03:14:00;99738.94;;;11.36;100.00
32298;BME280;18782;48.984;8.548;2023-11-19T03:16:29;99750.09;;;11.37;100.00
32298;BME280;18782;48.984;8.548;2023-11-19T03:18:58;99741.59;;;11.41;100.00
32298;BME280;18782;48.984;8.548;2023-11-19T03:21:28;99732.25;;;11.47;100.00
32298;BME280;18782;48.984;8.548;2023-11-19T03:23:56;99736.44;;;11.41;100.00
32298;BME280;18782;48.984;8.548;2023-11-19T03:26:26;99726.22;;;11.47;100.00
32298;BME280;18782;48.984;8.548;2023-11-19T03:28:54;99726.28;;;11.50;100.00
32298;BME280;18782;48.984;8.548;2023-11-19T03:31:23;99729.06;;;11.61;100.00
32298;BME280;18782;48.984;8.548;2023-11-19T03:33:51;99738.50;;;11.60;100.00
32298;BME280;18782;48.984;8.548;2023-11-19T03:36:24;99726.41;;;11.56;100.00
32298;BME280;18782;48.984;8.548;2023-11-19T03:38:52;99727.19;;;11.54;100.00
32298;BME280;18782;48.984;8.548;2023-11-19T03:41:19;99727.19;;;11.54;100.00
32298;BME280;18782;48.984;8.548;2023-11-19T03:43:47;99717.03;;;11.63;100.00
32298;BME280;18782;48.984;8.548;2023-11-19T03:46:18;99712.66;;;11.57;100.00
32298;BME280;18782;48.984;8.548;2023-11-19T03:48:46;99724.75;;;11.61;100.00
32298;BME280;18782;48.984;8.548;2023-11-19T03:51:14;99728.28;;;11.66;100.00
32298;BME280;18782;48.984;8.548;2023-11-19T03:53:43;99723.06;;;11.63;100.00
32298;BME280;18782;48.984;8.548;2023-11-19T03:56:11;99728.28;;;11.66;100.00
32298;BME280;18782;48.984;8.548;2023-11-19T03:58:39;99723.28;;;11.75;100.00
32298;BME280;18782;48.984;8.548;2023-11-19T04:01:11;99746.44;;;11.74;100.00
32298;BME280;18782;48.984;8.548;2023-11-19T04:03:39;99737.06;;;11.77;100.00
32298;BME280;18782;48.984;8.548;2023-11-19T04:06:16;99728.47;;;11.79;100.00
32298;BME280;18782;48.984;8.548;2023-11-19T04:08:45;99733.59;;;11.75;100.00
32298;BME280;18782;48.984;8.548;2023-11-19T04:11:13;99742.22;;;11.77;100.00
32298;BME280;18782;48.984;8.548;2023-11-19T04:13:41;99735.25;;;11.73;100.00
32298;BME280;18782;48.984;8.548;2023-11-19T04:16:09;99733.53;;;11.72;100.00
32298;BME280;18782;48.984;8.548;2023-11-19T04:18:36;99728.28;;;11.66;100.00
32298;BME280;18782;48.984;8.548;2023-11-19T04:21:06;99730.84;;;11.65;100.00
32298;BME280;18782;48.984;8.548;2023-11-19T04:23:34;99721.47;;;11.70;100.00
32298;BME280;18782;48.984;8.548;2023-11-19T04:26:04;99723.31;;;11.77;100.00
32298;BME280;18782;48.984;8.548;2023-11-19T04:28:37;99725.00;;;11.75;100.00
32298;BME280;18782;48.984;8.548;2023-11-19T04:31:04;99727.59;;;11.76;100.00
32298;BME280;18782;48.984;8.548;2023-11-19T04:33:32;99707.84;;;11.79;100.00
32298;BME280;18782;48.984;8.548;2023-11-19T04:36:00;99709.56;;;11.80;100.00
32298;BME280;18782;48.984;8.548;2023-11-19T04:38:29;99713.97;;;11.84;100.00
32298;BME280;18782;48.984;8.548;2023-11-19T04:40:56;99716.63;;;11.87;100.00
32298;BME280;18782;48.984;8.548;2023-11-19T04:43:25;99718.25;;;11.83;100.00
32298;BME280;18782;48.984;8.548;2023-11-19T04:45:53;99722.44;;;11.78;100.00
32298;BME280;18782;48.984;8.548;2023-11-19T04:48:21;99725.19;;;11.86;100.00
32298;BME280;18782;48.984;8.548;2023-11-19T04:50:48;99716.63;;;11.87;100.00
32298;BME280;18782;48.984;8.548;2023-11-19T04:53:17;99727.09;;;11.99;100.00
32298;BME280;18782;48.984;8.548;2023-11-19T04:55:44;99718.50;;;12.00;100.00
32298;BME280;18782;48.984;8.548;2023-11-19T04:58:12;99710.06;;;12.10;100.00
32298;BME280;18782;48.984;8.548;2023-11-19T05:00:41;99715.44;;;12.24;100.00
32298;BME280;18782;48.984;8.548;2023-11-19T05:03:08;99711.94;;;12.20;100.00
32298;BME280;18782;48.984;8.548;2023-11-19T05:05:36;99703.41;;;12.24;100.00
32298;BME280;18782;48.984;8.548;2023-11-19T05:08:04;99708.63;;;12.31;100.00
32298;BME280;18782;48.984;8.548;2023-11-19T05:10:32;99701.06;;;12.43;100.00
32298;BME280;18782;48.984;8.548;2023-11-19T05:13:00;99700.16;;;12.38;100.00
32298;BME280;18782;48.984;8.548;2023-11-19T05:15:27;99697.66;;;12.44;100.00
32298;BME280;18782;48.984;8.548;2023-11-19T05:17:56;99694.19;;;12.43;100.00
32298;BME280;18782;48.984;8.548;2023-11-19T05:20:24;99695.78;;;12.35;100.00
32298;BME280;18782;48.984;8.548;2023-11-19T05:22:52;99698.38;;;12.34;100.00
32298;BME280;18782;48.984;8.548;2023-11-19T05:25:19;99700.16;;;12.38;100.00
32298;BME280;18782;48.984;8.548;2023-11-19T05:27:47;99691.56;;;12.42;100.00
32298;BME280;18782;48.984;8.548;2023-11-19T05:30:15;99702.03;;;12.51;100.00
32298;BME280;18782;48.984;8.548;2023-11-19T05:32:42;99688.31;;;12.55;100.00
32298;BME280;18782;48.984;8.548;2023-11-19T05:35:12;99684.03;;;12.57;100.00
32298;BME280;18782;48.984;8.548;2023-11-19T05:37:39;99712.59;;;12.69;100.00
32298;BME280;18782;48.984;8.548;2023-11-19T05:40:08;99697.91;;;12.65;100.00
32298;BME280;18782;48.984;8.548;2023-11-19T05:42:41;99697.06;;;12.66;100.00
32298;BME280;18782;48.984;8.548;2023-11-19T05:45:11;99706.63;;;12.75;100.00
32298;BME280;18782;48.984;8.548;2023-11-19T05:47:39;99702.28;;;12.69;100.00
32298;BME280;18782;48.984;8.548;2023-11-19T05:50:08;99696.38;;;12.81;100.00
32298;BME280;18782;48.984;8.548;2023-11-19T05:52:37;99694.59;;;12.78;100.00
32298;BME280;18782;48.984;8.548;2023-11-19T05:55:06;99695.38;;;12.71;100.00
32298;BME280;18782;48.984;8.548;2023-11-19T05:57:37;99698.97;;;12.83;100.00
32298;BME280;18782;48.984;8.548;2023-11-19T06:00:08;99696.38;;;12.81;100.00
32298;BME280;18782;48.984;8.548;2023-11-19T06:02:39;99681.66;;;12.75;100.00
32298;BME280;18782;48.984;8.548;2023-11-19T06:05:07;99698.91;;;12.76;100.00
32298;BME280;18782;48.984;8.548;2023-11-19T06:07:37;99693.69;;;12.73;100.00
32298;BME280;18782;48.984;8.548;2023-11-19T06:10:06;99700.56;;;12.71;100.00
32298;BME280;18782;48.984;8.548;2023-11-19T06:12:36;99707.56;;;12.82;100.00
32298;BME280;18782;48.984;8.548;2023-11-19T06:15:08;99716.28;;;12.90;100.00
32298;BME280;18782;48.984;8.548;2023-11-19T06:17:36;99700.84;;;12.96;100.00
32298;BME280;18782;48.984;8.548;2023-11-19T06:20:04;99695.56;;;12.88;100.00
32298;BME280;18782;48.984;8.548;2023-11-19T06:22:33;99712.84;;;12.91;100.00
32298;BME280;18782;48.984;8.548;2023-11-19T06:25:02;99712.06;;;12.98;100.00
32298;BME280;18782;48.984;8.548;2023-11-19T06:27:33;99699.13;;;12.95;100.00
32298;BME280;18782;48.984;8.548;2023-11-19T06:30:01;99702.63;;;13.03;100.00
32298;BME280;18782;48.984;8.548;2023-11-19T06:32:29;99704.28;;;12.96;100.00
32298;BME280;18782;48.984;8.548;2023-11-19T06:34:57;99693.91;;;12.92;100.00
32298;BME280;18782;48.984;8.548;2023-11-19T06:37:24;99680.94;;;12.87;100.00
32298;BME280;18782;48.984;8.548;2023-11-19T06:39:53;99714.53;;;12.89;100.00
32298;BME280;18782;48.984;8.548;2023-11-19T06:42:22;99705.84;;;12.84;100.00
32298;BME280;18782;48.984;8.548;2023-11-19T06:44:50;99702.44;;;12.85;100.00
32298;BME280;18782;48.984;8.548;2023-11-19T06:47:18;99708.50;;;12.88;100.00
32298;BME280;18782;48.984;8.548;2023-11-19T06:49:45;99703.38;;;12.93;100.00
32298;BME280;18782;48.984;8.548;2023-11-19T06:52:13;99707.81;;;13.03;100.00
32298;BME280;18782;48.984;8.548;2023-11-19T06:54:40;99692.34;;;13.09;100.00
32298;BME280;18782;48.984;8.548;2023-11-19T06:57:08;99695.84;;;13.14;100.00
32298;BME280;18782;48.984;8.548;2023-11-19T06:59:37;99692.44;;;13.18;100.00
32298;BME280;18782;48.984;8.548;2023-11-19T07:02:06;99694.41;;;13.38;100.00
32298;BME280;18782;48.984;8.548;2023-11-19T07:04:34;99690.91;;;13.36;100.00
32298;BME280;18782;48.984;8.548;2023-11-19T07:07:02;99690.91;;;13.32;100.00
32298;BME280;18782;48.984;8.548;2023-11-19T07:09:29;99690.91;;;13.32;100.00
32298;BME280;18782;48.984;8.548;2023-11-19T07:11:57;99693.47;;;13.31;100.00
32298;BME280;18782;48.984;8.548;2023-11-19T07:14:26;99690.88;;;13.29;100.00
32298;BME280;18782;48.984;8.548;2023-11-19T07:16:56;99706.38;;;13.26;100.00
32298;BME280;18782;48.984;8.548;2023-11-19T07:19:23;99721.88;;;13.29;100.00
32298;BME280;18782;48.984;8.548;2023-11-19T07:21:51;99718.53;;;13.37;100.00
32298;BME280;18782;48.984;8.548;2023-11-19T07:24:20;99725.44;;;13.38;100.00
32298;BME280;18782;48.984;8.548;2023-11-19T07:26:48;99723.66;;;13.34;100.00
32298;BME280;18782;48.984;8.548;2023-11-19T07:29:16;99730.44;;;13.25;100.00
32298;BME280;18782;48.984;8.548;2023-11-19T07:31:56;99724.34;;;13.20;100.00
32298;BME280;18782;48.984;8.548;2023-11-19T07:34:24;99737.19;;;13.14;100.00
32298;BME280;18782;48.984;8.548;2023-11-19T07:36:52;99747.47;;;13.10;100.00
32298;BME280;18782;48.984;8.548;2023-11-19T07:39:20;99754.34;;;13.06;100.00
32298;BME280;18782;48.984;8.548;2023-11-19T07:41:48;99749.19;;;13.09;100.00
32298;BME280;18782;48.984;8.548;2023-11-19T07:44:15;99744.28;;;13.27;100.00
32298;BME280;18782;48.984;8.548;2023-11-19T07:46:43;99735.78;;;13.41;100.00
32298;BME280;18782;48.984;8.548;2023-11-19T07:49:13;99746.06;;;13.35;100.00
32298;BME280;18782;48.984;8.548;2023-11-19T07:51:41;99744.28;;;13.27;100.00
32298;BME280;18782;48.984;8.548;2023-11-19T07:54:08;99733.94;;;13.26;100.00
32298;BME280;18782;48.984;8.548;2023-11-19T07:56:36;99754.69;;;13.34;100.00
32298;BME280;18782;48.984;8.548;2023-11-19T07:59:04;99772.06;;;13.47;100.00
32298;BME280;18782;48.984;8.548;2023-11-19T08:01:32;99764.41;;;13.61;100.00
32298;BME280;18782;48.984;8.548;2023-11-19T08:03:59;99761.06;;;13.68;100.00
32298;BME280;18782;48.984;8.548;2023-11-19T08:06:30;99780.88;;;13.70;100.00
32298;BME280;18782;48.984;8.548;2023-11-19T08:08:56;99798.13;;;13.71;100.00
32298;BME280;18782;48.984;8.548;2023-11-19T08:11:24;99781.75;;;13.71;100.00
32298;BME280;18782;48.984;8.548;2023-11-19T08:13:52;99789.41;;;13.60;100.00
32298;BME280;18782;48.984;8.548;2023-11-19T08:16:19;99776.44;;;13.57;100.00
32298;BME280;18782;48.984;8.548;2023-11-19T08:18:47;99774.72;;;13.56;100.00
32298;BME280;18782;48.984;8.548;2023-11-19T08:21:15;99780.75;;;13.55;100.00
32298;BME280;18782;48.984;8.548;2023-11-19T08:23:44;99789.41;;;13.60;100.00
32298;BME280;18782;48.984;8.548;2023-11-19T08:26:11;99786.00;;;13.64;100.00
32298;BME280;18782;48.984;8.548;2023-11-19T08:28:39;99793.81;;;13.69;100.00
32298;BME280;18782;48.984;8.548;2023-11-19T08:31:07;99789.56;;;13.75;100.00
32298;BME280;18782;48.984;8.548;2023-11-19T08:33:35;99790.47;;;13.79;100.00
32298;BME280;18782;48.984;8.548;2023-11-19T08:36:03;99795.72;;;13.90;100.00
32298;BME280;18782;48.984;8.548;2023-11-19T08:38:32;99794.91;;;13.95;100.00
32298;BME280;18782;48.984;8.548;2023-11-19T08:41:01;99795.00;;;14.06;100.00
32298;BME280;18782;48.984;8.548;2023-11-19T08:43:29;99789.81;;;14.07;100.00
32298;BME280;18782;48.984;8.548;2023-11-19T08:45:58;99806.28;;;14.16;100.00
32298;BME280;18782;48.984;8.548;2023-11-19T08:48:25;99794.22;;;14.16;100.00
32298;BME280;18782;48.984;8.548;2023-11-19T08:50:53;99790.75;;;14.19;100.00
32298;BME280;18782;48.984;8.548;2023-11-19T08:53:20;99812.38;;;14.22;99.79
32298;BME280;18782;48.984;8.548;2023-11-19T08:55:48;99785.66;;;14.29;99.36
32298;BME280;18782;48.984;8.548;2023-11-19T08:58:18;99798.59;;;14.29;99.94
32298;BME280;18782;48.984;8.548;2023-11-19T09:00:45;99800.34;;;14.27;100.00
32298;BME280;18782;48.984;8.548;2023-11-19T09:03:13;99819.28;;;14.20;100.00
32298;BME280;18782;48.984;8.548;2023-11-19T09:05:41;99845.09;;;14.14;100.00
32298;BME280;18782;48.984;8.548;2023-11-19T09:08:09;99838.03;;;13.95;100.00
32298;BME280;18782;48.984;8.548;2023-11-19T09:10:37;99848.19;;;13.75;100.00
32298;BME280;18782;48.984;8.548;2023-11-19T09:13:05;99841.19;;;13.63;100.00
32298;BME280;18782;48.984;8.548;2023-11-19T09:15:34;99841.94;;;13.54;100.00
32298;BME280;18782;48.984;8.548;2023-11-19T09:18:02;99839.31;;;13.50;100.00
32298;BME280;18782;48.984;8.548;2023-11-19T09:20:31;99838.41;;;13.46;100.00
32298;BME280;18782;48.984;8.548;2023-11-19T09:23:04;99858.28;;;13.52;100.00
32298;BME280;18782;48.984;8.548;2023-11-19T09:25:32;99841.94;;;13.54;100.00
32298;BME280;18782;48.984;8.548;2023-11-19T09:28:03;99841.94;;;13.56;100.00
32298;BME280;18782;48.984;8.548;2023-11-19T09:30:30;99833.38;;;13.60;100.00
32298;BME280;18782;48.984;8.548;2023-11-19T09:33:01;99838.66;;;13.68;100.00
32298;BME280;18782;48.984;8.548;2023-11-19T09:35:29;99825.66;;;13.63;100.00
32298;BME280;18782;48.984;8.548;2023-11-19T09:37:57;99844.66;;;13.65;100.00
32298;BME280;18782;48.984;8.548;2023-11-19T09:40:26;99843.97;;;13.84;100.00
32298;BME280;18782;48.984;8.548;2023-11-19T09:42:54;99845.78;;;13.93;100.00
32298;BME280;18782;48.984;8.548;2023-11-19T09:45:27;99858.03;;;14.13;100.00
32298;BME280;18782;48.984;8.548;2023-11-19T09:47:55;99858.16;;;14.26;100.00
32298;BME280;18782;48.984;8.548;2023-11-19T09:50:26;99852.16;;;14.33;100.00
32298;BME280;18782;48.984;8.548;2023-11-19T09:52:53;99863.53;;;14.51;99.67
32298;BME280;18782;48.984;8.548;2023-11-19T09:55:21;99857.38;;;14.40;100.00
32298;BME280;18782;48.984;8.548;2023-11-19T09:57:50;99844.53;;;14.49;100.00
32298;BME280;18782;48.984;8.548;2023-11-19T10:00:21;99854.06;;;14.56;99.98
32298;BME280;18782;48.984;8.548;2023-11-19T10:02:49;99864.50;;;14.65;97.91
32298;BME280;18782;48.984;8.548;2023-11-19T10:05:19;99845.50;;;14.63;98.91
32298;BME280;18782;48.984;8.548;2023-11-19T10:07:49;99837.75;;;14.71;99.12
32298;BME280;18782;48.984;8.548;2023-11-19T10:10:18;99829.13;;;14.72;98.78
32298;BME280;18782;48.984;8.548;2023-11-19T10:12:45;99827.44;;;14.75;97.86
32298;BME280;18782;48.984;8.548;2023-11-19T10:15:20;99834.38;;;14.78;97.15
32298;BME280;18782;48.984;8.548;2023-11-19T10:17:48;99829.19;;;14.81;97.26
32298;BME280;18782;48.984;8.548;2023-11-19T10:20:16;99822.28;;;14.80;97.01
32298;BME280;18782;48.984;8.548;2023-11-19T10:22:43;99826.63;;;14.85;97.30
32298;BME280;18782;48.984;8.548;2023-11-19T10:25:27;99823.31;;;15.17;96.37
32298;BME280;18782;48.984;8.548;2023-11-19T10:27:55;99825.94;;;15.29;94.71
32298;BME280;18782;48.984;8.548;2023-11-19T10:30:25;99826.84;;;15.36;92.37
32298;BME280;18782;48.984;8.548;2023-11-19T10:33:03;99813.88;;;15.45;92.14
32298;BME280;18782;48.984;8.548;2023-11-19T10:35:33;99829.47;;;15.53;91.30
32298;BME280;18782;48.984;8.548;2023-11-19T10:38:01;99839.88;;;15.56;89.73
32298;BME280;18782;48.984;8.548;2023-11-19T10:40:39;99839.88;;;15.59;90.03
32298;BME280;18782;48.984;8.548;2023-11-19T10:43:08;99828.66;;;15.63;90.17
32298;BME280;18782;48.984;8.548;2023-11-19T10:45:36;99816.59;;;15.83;89.68
32298;BME280;18782;48.984;8.548;2023-11-19T10:48:05;99826.97;;;15.79;88.50
32298;BME280;18782;48.984;8.548;2023-11-19T10:50:33;99820.06;;;15.88;89.25
32298;BME280;18782;48.984;8.548;2023-11-19T10:53:03;99820.06;;;16.16;86.38
32298;BME280;18782;48.984;8.548;2023-11-19T10:55:32;99801.88;;;16.05;86.86
32298;BME280;18782;48.984;8.548;2023-11-19T10:58:05;99804.47;;;16.05;87.86
32298;BME280;18782;48.984;8.548;2023-11-19T11:00:38;99822.66;;;16.10;87.69
32298;BME280;18782;48.984;8.548;2023-11-19T11:03:11;99803.63;;;16.05;87.58
32298;BME280;18782;48.984;8.548;2023-11-19T11:05:42;99807.06;;;15.90;87.56
32298;BME280;18782;48.984;8.548;2023-11-19T11:08:10;99788.88;;;16.34;88.07
32298;BME280;18782;48.984;8.548;2023-11-19T11:10:41;99789.69;;;16.65;85.06
32298;BME280;18782;48.984;8.548;2023-11-19T11:13:14;99794.88;;;16.82;84.14
32298;BME280;18782;48.984;8.548;2023-11-19T11:15:43;99792.25;;;16.79;82.88
32298;BME280;18782;48.984;8.548;2023-11-19T11:18:13;99792.38;;;16.15;83.85
32298;BME280;18782;48.984;8.548;2023-11-19T11:20:41;99797.56;;;16.15;84.40
32298;BME280;18782;48.984;8.548;2023-11-19T11:23:42;99794.91;;;16.50;83.96
32298;BME280;18782;48.984;8.548;2023-11-19T11:26:37;99785.38;;;16.55;83.66
32298;BME280;18782;48.984;8.548;2023-11-19T11:29:20;99792.25;;;16.70;82.98
32298;BME280;18782;48.984;8.548;2023-11-19T11:31:59;99780.13;;;16.87;82.21
32298;BME280;18782;48.984;8.548;2023-11-19T11:34:50;99787.03;;;16.91;82.71
32298;BME280;18782;48.984;8.548;2023-11-19T11:37:28;99784.44;;;16.70;82.86
32298;BME280;18782;48.984;8.548;2023-11-19T11:39:58;99781.13;;;16.05;86.31
32298;BME280;18782;48.984;8.548;2023-11-19T11:42:33;99784.56;;;15.80;88.04
32298;BME280;18782;48.984;8.548;2023-11-19T11:45:04;99772.47;;;15.83;88.42
32298;BME280;18782;48.984;8.548;2023-11-19T11:48:12;99762.06;;;16.06;87.23
32298;BME280;18782;48.984;8.548;2023-11-19T11:50:53;99775.91;;;16.14;86.51
32298;BME280;18782;48.984;8.548;2023-11-19T11:53:22;99761.94;;;16.64;85.36
32298;BME280;18782;48.984;8.548;2023-11-19T11:55:58;99758.50;;;16.62;83.88
32298;BME280;18782;48.984;8.548;2023-11-19T11:58:30;99768.63;;;17.34;83.16
32298;BME280;18782;48.984;8.548;2023-11-19T12:01:01;99764.91;;;17.69;78.59
32298;BME280;18782;48.984;8.548;2023-11-19T12:03:31;99758.59;;;18.04;77.28
32298;BME280;18782;48.984;8.548;2023-11-19T12:05:59;99762.59;;;17.26;78.87
32298;BME280;18782;48.984;8.548;2023-11-19T12:08:29;99752.09;;;17.41;77.88
32298;BME280;18782;48.984;8.548;2023-11-19T12:10:58;99764.16;;;17.55;78.23
32298;BME280;18782;48.984;8.548;2023-11-19T12:13:45;99746.06;;;17.32;78.60
32298;BME280;18782;48.984;8.548;2023-11-19T12:16:15;99740.13;;;17.13;79.38
32298;BME280;18782;48.984;8.548;2023-11-19T12:18:42;99740.28;;;16.79;79.86
32298;BME280;18782;48.984;8.548;2023-11-19T12:21:10;99726.50;;;16.50;82.05
32298;BME280;18782;48.984;8.548;2023-11-19T12:23:45;99733.41;;;16.57;82.36
32298;BME280;18782;48.984;8.548;2023-11-19T12:26:34;99736.75;;;16.89;80.46
32298;BME280;18782;48.984;8.548;2023-11-19T12:29:02;99747.06;;;17.12;79.31
32298;BME280;18782;48.984;8.548;2023-11-19T12:31:37;99734.09;;;17.02;79.86
32298;BME280;18782;48.984;8.548;2023-11-19T12:34:06;99712.88;;;17.64;76.95
32298;BME280;18782;48.984;8.548;2023-11-19T12:36:34;99714.22;;;18.11;74.79
32298;BME280;18782;48.984;8.548;2023-11-19T12:39:02;99711.16;;;18.52;73.82
32298;BME280;18782;48.984;8.548;2023-11-19T12:41:30;99716.97;;;18.81;72.11
32298;BME280;18782;48.984;8.548;2023-11-19T12:44:09;99721.50;;;18.62;71.16
32298;BME280;18782;48.984;8.548;2023-11-19T12:46:38;99724.56;;;18.19;72.48
32298;BME280;18782;48.984;8.548;2023-11-19T12:49:06;99713.34;;;18.11;72.82
32298;BME280;18782;48.984;8.548;2023-11-19T12:51:34;99698.31;;;18.37;72.38
32298;BME280;18782;48.984;8.548;2023-11-19T12:54:02;99692.69;;;18.75;70.16
32298;BME280;18782;48.984;8.548;2023-11-19T12:56:31;99707.72;;;18.50;70.40
32298;BME280;18782;48.984;8.548;2023-11-19T12:59:10;99693.19;;;18.33;70.27
32298;BME280;18782;48.984;8.548;2023-11-19T13:01:39;99689.81;;;18.23;72.07
32298;BME280;18782;48.984;8.548;2023-11-19T13:04:17;99693.63;;;18.67;70.10